sensor_id;sensor_type;location;lat;lon;timestamp;P1;durP1;ratioP1;P2;durP2;ratioP2
15635;SDS011;7917;50.818;6.972;2022-09-09T00:01:57;2.65;;;1.10;;
15635;SDS011;7917;50.818;6.972;2022-09-09T00:04:32;2.22;;;1.20;;
15635;SDS011;7917;50.818;6.972;2022-09-09T00:07:03;3.15;;;1.10;;
15635;SDS011;7917;50.818;6.972;2022-09-09T00:09:36;4.18;;;1.40;;
15635;SDS011;7917;50.818;6.972;2022-09-09T00:12:15;1.58;;;1.00;;
15635;SDS011;7917;50.818;6.972;2022-09-09T00:14:48;2.22;;;1.08;;
15635;SDS011;7917;50.818;6.972;2022-09-09T00:17:22;2.42;;;1.08;;
15635;SDS011;7917;50.818;6.972;2022-09-09T00:20:01;3.80;;;1.27;;
15635;SDS011;7917;50.818;6.972;2022-09-09T00:22:36;3.33;;;0.95;;
15635;SDS011;7917;50.818;6.972;2022-09-09T00:25:12;3.15;;;1.20;;
15635;SDS011;7917;50.818;6.972;2022-09-09T00:27:47;2.28;;;1.23;;
15635;SDS011;7917;50.818;6.972;2022-09-09T00:30:16;3.63;;;1.10;;
15635;SDS011;7917;50.818;6.972;2022-09-09T00:32:48;3.15;;;0.82;;
15635;SDS011;7917;50.818;6.972;2022-09-09T00:35:21;4.82;;;1.33;;
15635;SDS011;7917;50.818;6.972;2022-09-09T00:37:51;2.45;;;1.02;;
15635;SDS011;7917;50.818;6.972;2022-09-09T00:40:24;3.08;;;1.25;;
15635;SDS011;7917;50.818;6.972;2022-09-09T00:43:01;3.60;;;1.25;;
15635;SDS011;7917;50.818;6.972;2022-09-09T00:46:10;2.65;;;1.20;;
15635;SDS011;7917;50.818;6.972;2022-09-09T00:48:58;2.60;;;0.90;;
15635;SDS011;7917;50.818;6.972;2022-09-09T00:51:34;1.83;;;0.93;;
15635;SDS011;7917;50.818;6.972;2022-09-09T00:54:24;6.05;;;1.40;;
15635;SDS011;7917;50.818;6.972;2022-09-09T00:57:05;5.88;;;1.40;;
15635;SDS011;7917;50.818;6.972;2022-09-09T00:59:44;2.72;;;1.23;;
15635;SDS011;7917;50.818;6.972;2022-09-09T01:02:16;1.85;;;1.00;;
15635;SDS011;7917;50.818;6.972;2022-09-09T01:04:56;2.97;;;1.02;;
15635;SDS011;7917;50.818;6.972;2022-09-09T01:07:29;2.08;;;1.25;;
15635;SDS011;7917;50.818;6.972;2022-09-09T01:09:58;4.57;;;1.52;;
15635;SDS011;7917;50.818;6.972;2022-09-09T01:12:34;4.13;;;1.17;;
15635;SDS011;7917;50.818;6.972;2022-09-09T01:15:14;3.25;;;1.00;;
15635;SDS011;7917;50.818;6.972;2022-09-09T01:17:52;2.20;;;0.80;;
15635;SDS011;7917;50.818;6.972;2022-09-09T01:20:28;3.15;;;1.00;;
15635;SDS011;7917;50.818;6.972;2022-09-09T01:23:17;3.00;;;1.23;;
15635;SDS011;7917;50.818;6.972;2022-09-09T01:26:18;4.20;;;1.35;;
15635;SDS011;7917;50.818;6.972;2022-09-09T01:28:53;5.10;;;1.17;;
15635;SDS011;7917;50.818;6.972;2022-09-09T01:31:21;3.47;;;1.20;;
15635;SDS011;7917;50.818;6.972;2022-09-09T01:33:52;2.55;;;1.27;;
15635;SDS011;7917;50.818;6.972;2022-09-09T01:36:23;3.83;;;1.38;;
15635;SDS011;7917;50.818;6.972;2022-09-09T01:38:55;2.75;;;1.30;;
15635;SDS011;7917;50.818;6.972;2022-09-09T01:41:24;7.47;;;1.10;;
15635;SDS011;7917;50.818;6.972;2022-09-09T01:43:52;4.57;;;1.20;;
15635;SDS011;7917;50.818;6.972;2022-09-09T01:46:21;6.32;;;2.50;;
15635;SDS011;7917;50.818;6.972;2022-09-09T01:48:50;2.28;;;1.13;;
15635;SDS011;7917;50.818;6.972;2022-09-09T01:51:18;1.52;;;1.10;;
15635;SDS011;7917;50.818;6.972;2022-09-09T01:53:45;2.63;;;1.20;;
15635;SDS011;7917;50.818;6.972;2022-09-09T01:56:21;1.75;;;1.25;;
15635;SDS011;7917;50.818;6.972;2022-09-09T01:59:01;4.32;;;1.20;;
15635;SDS011;7917;50.818;6.972;2022-09-09T02:01:44;4.80;;;1.48;;
15635;SDS011;7917;50.818;6.972;2022-09-09T02:04:23;4.55;;;2.45;;
15635;SDS011;7917;50.818;6.972;2022-09-09T02:07:02;1.95;;;1.02;;
15635;SDS011;7917;50.818;6.972;2022-09-09T02:09:47;2.38;;;1.67;;
15635;SDS011;7917;50.818;6.972;2022-09-09T02:12:21;2.83;;;1.17;;
15635;SDS011;7917;50.818;6.972;2022-09-09T02:14:52;2.85;;;1.17;;
15635;SDS011;7917;50.818;6.972;2022-09-09T02:17:25;4.68;;;1.77;;
15635;SDS011;7917;50.818;6.972;2022-09-09T02:19:58;4.95;;;1.80;;
15635;SDS011;7917;50.818;6.972;2022-09-09T02:22:30;1.85;;;1.10;;
15635;SDS011;7917;50.818;6.972;2022-09-09T02:25:01;5.97;;;1.75;;
15635;SDS011;7917;50.818;6.972;2022-09-09T02:27:31;3.10;;;1.10;;
15635;SDS011;7917;50.818;6.972;2022-09-09T02:30:00;5.25;;;1.30;;
15635;SDS011;7917;50.818;6.972;2022-09-09T02:32:29;1.75;;;1.00;;
15635;SDS011;7917;50.818;6.972;2022-09-09T02:35:00;7.53;;;1.15;;
15635;SDS011;7917;50.818;6.972;2022-09-09T02:37:34;2.45;;;1.20;;
15635;SDS011;7917;50.818;6.972;2022-09-09T02:40:04;4.93;;;1.73;;
15635;SDS011;7917;50.818;6.972;2022-09-09T02:42:39;4.28;;;1.58;;
15635;SDS011;7917;50.818;6.972;2022-09-09T02:45:07;6.05;;;1.30;;
15635;SDS011;7917;50.818;6.972;2022-09-09T02:47:35;4.40;;;1.45;;
15635;SDS011;7917;50.818;6.972;2022-09-09T02:50:10;4.07;;;1.40;;
15635;SDS011;7917;50.818;6.972;2022-09-09T02:52:43;4.55;;;1.70;;
15635;SDS011;7917;50.818;6.972;2022-09-09T02:55:18;2.35;;;1.25;;
15635;SDS011;7917;50.818;6.972;2022-09-09T02:57:59;2.25;;;1.40;;
15635;SDS011;7917;50.818;6.972;2022-09-09T03:03:51;2.25;;;1.30;;
15635;SDS011;7917;50.818;6.972;2022-09-09T03:06:21;1.45;;;1.25;;
15635;SDS011;7917;50.818;6.972;2022-09-09T03:08:48;3.83;;;1.58;;
15635;SDS011;7917;50.818;6.972;2022-09-09T03:11:17;3.88;;;1.38;;
15635;SDS011;7917;50.818;6.972;2022-09-09T03:13:46;5.45;;;1.77;;
15635;SDS011;7917;50.818;6.972;2022-09-09T03:16:14;4.15;;;1.40;;
15635;SDS011;7917;50.818;6.972;2022-09-09T03:18:42;2.38;;;1.15;;
15635;SDS011;7917;50.818;6.972;2022-09-09T03:21:11;2.67;;;1.30;;
15635;SDS011;7917;50.818;6.972;2022-09-09T03:23:38;3.35;;;1.52;;
15635;SDS011;7917;50.818;6.972;2022-09-09T03:26:07;4.18;;;1.63;;
15635;SDS011;7917;50.818;6.972;2022-09-09T03:28:34;2.38;;;1.35;;
15635;SDS011;7917;50.818;6.972;2022-09-09T03:31:04;5.45;;;1.40;;
15635;SDS011;7917;50.818;6.972;2022-09-09T03:33:35;4.35;;;1.48;;
15635;SDS011;7917;50.818;6.972;2022-09-09T03:36:03;3.08;;;1.30;;
15635;SDS011;7917;50.818;6.972;2022-09-09T03:38:32;3.28;;;1.33;;
15635;SDS011;7917;50.818;6.972;2022-09-09T03:41:01;4.88;;;1.85;;
15635;SDS011;7917;50.818;6.972;2022-09-09T03:43:29;5.00;;;1.23;;
15635;SDS011;7917;50.818;6.972;2022-09-09T03:45:57;3.03;;;1.20;;
15635;SDS011;7917;50.818;6.972;2022-09-09T03:48:27;3.28;;;1.23;;
15635;SDS011;7917;50.818;6.972;2022-09-09T03:50:55;3.45;;;1.45;;
15635;SDS011;7917;50.818;6.972;2022-09-09T03:53:25;4.60;;;1.50;;
15635;SDS011;7917;50.818;6.972;2022-09-09T03:55:55;6.97;;;1.70;;
15635;SDS011;7917;50.818;6.972;2022-09-09T03:58:24;5.50;;;1.83;;
15635;SDS011;7917;50.818;6.972;2022-09-09T04:00:53;2.75;;;1.17;;
15635;SDS011;7917;50.818;6.972;2022-09-09T04:03:23;4.28;;;1.50;;
15635;SDS011;7917;50.818;6.972;2022-09-09T04:05:52;4.18;;;1.33;;
15635;SDS011;7917;50.818;6.972;2022-09-09T04:08:20;5.20;;;1.65;;
15635;SDS011;7917;50.818;6.972;2022-09-09T04:10:51;6.28;;;1.40;;
15635;SDS011;7917;50.818;6.972;2022-09-09T04:13:22;3.72;;;1.20;;
15635;SDS011;7917;50.818;6.972;2022-09-09T04:15:50;5.10;;;1.40;;
15635;SDS011;7917;50.818;6.972;2022-09-09T04:18:20;2.70;;;1.30;;
15635;SDS011;7917;50.818;6.972;2022-09-09T04:20:48;5.90;;;1.40;;
15635;SDS011;7917;50.818;6.972;2022-09-09T04:23:17;5.78;;;1.38;;
15635;SDS011;7917;50.818;6.972;2022-09-09T04:25:46;2.42;;;1.15;;
15635;SDS011;7917;50.818;6.972;2022-09-09T04:28:17;3.90;;;1.50;;
15635;SDS011;7917;50.818;6.972;2022-09-09T04:30:48;1.35;;;1.00;;
15635;SDS011;7917;50.818;6.972;2022-09-09T04:33:20;4.70;;;1.70;;
15635;SDS011;7917;50.818;6.972;2022-09-09T04:35:48;5.30;;;1.50;;
15635;SDS011;7917;50.818;6.972;2022-09-09T04:38:20;7.57;;;1.58;;
15635;SDS011;7917;50.818;6.972;2022-09-09T04:40:50;1.65;;;1.20;;
15635;SDS011;7917;50.818;6.972;2022-09-09T04:43:19;4.20;;;1.48;;
15635;SDS011;7917;50.818;6.972;2022-09-09T04:45:47;2.67;;;1.55;;
15635;SDS011;7917;50.818;6.972;2022-09-09T04:48:17;2.28;;;1.38;;
15635;SDS011;7917;50.818;6.972;2022-09-09T04:50:53;3.90;;;1.40;;
15635;SDS011;7917;50.818;6.972;2022-09-09T04:53:25;3.22;;;1.15;;
15635;SDS011;7917;50.818;6.972;2022-09-09T04:55:53;2.35;;;1.25;;
15635;SDS011;7917;50.818;6.972;2022-09-09T04:58:29;2.80;;;1.50;;
15635;SDS011;7917;50.818;6.972;2022-09-09T05:01:03;3.08;;;1.10;;
15635;SDS011;7917;50.818;6.972;2022-09-09T05:03:31;3.50;;;1.52;;
15635;SDS011;7917;50.818;6.972;2022-09-09T05:06:02;3.28;;;1.48;;
15635;SDS011;7917;50.818;6.972;2022-09-09T05:08:32;4.53;;;1.40;;
15635;SDS011;7917;50.818;6.972;2022-09-09T05:11:00;4.10;;;1.23;;
15635;SDS011;7917;50.818;6.972;2022-09-09T05:13:28;2.90;;;1.30;;
15635;SDS011;7917;50.818;6.972;2022-09-09T05:15:57;3.83;;;1.27;;
15635;SDS011;7917;50.818;6.972;2022-09-09T05:18:26;4.50;;;1.65;;
15635;SDS011;7917;50.818;6.972;2022-09-09T05:20:58;2.85;;;1.00;;
15635;SDS011;7917;50.818;6.972;2022-09-09T05:23:26;2.63;;;1.10;;
15635;SDS011;7917;50.818;6.972;2022-09-09T05:25:57;2.67;;;1.25;;
15635;SDS011;7917;50.818;6.972;2022-09-09T05:28:25;4.95;;;1.60;;
15635;SDS011;7917;50.818;6.972;2022-09-09T05:30:56;4.95;;;1.33;;
15635;SDS011;7917;50.818;6.972;2022-09-09T05:33:26;6.85;;;1.83;;
15635;SDS011;7917;50.818;6.972;2022-09-09T05:35:57;2.88;;;1.55;;
15635;SDS011;7917;50.818;6.972;2022-09-09T05:38:25;2.45;;;1.38;;
15635;SDS011;7917;50.818;6.972;2022-09-09T05:40:58;3.97;;;1.38;;
15635;SDS011;7917;50.818;6.972;2022-09-09T05:43:26;4.50;;;1.20;;
15635;SDS011;7917;50.818;6.972;2022-09-09T05:46:00;6.00;;;1.20;;
15635;SDS011;7917;50.818;6.972;2022-09-09T05:48:30;2.97;;;1.25;;
15635;SDS011;7917;50.818;6.972;2022-09-09T05:50:59;2.10;;;1.15;;
15635;SDS011;7917;50.818;6.972;2022-09-09T05:53:27;3.65;;;1.30;;
15635;SDS011;7917;50.818;6.972;2022-09-09T05:56:03;3.42;;;1.42;;
15635;SDS011;7917;50.818;6.972;2022-09-09T05:58:32;5.28;;;1.30;;
15635;SDS011;7917;50.818;6.972;2022-09-09T06:01:00;3.15;;;1.42;;
15635;SDS011;7917;50.818;6.972;2022-09-09T06:03:31;1.83;;;1.35;;
15635;SDS011;7917;50.818;6.972;2022-09-09T06:05:59;5.95;;;1.23;;
15635;SDS011;7917;50.818;6.972;2022-09-09T06:08:27;2.38;;;1.27;;
15635;SDS011;7917;50.818;6.972;2022-09-09T06:11:00;5.88;;;1.40;;
15635;SDS011;7917;50.818;6.972;2022-09-09T06:13:31;5.20;;;1.88;;
15635;SDS011;7917;50.818;6.972;2022-09-09T06:15:59;4.35;;;1.40;;
15635;SDS011;7917;50.818;6.972;2022-09-09T06:18:27;5.93;;;1.50;;
15635;SDS011;7917;50.818;6.972;2022-09-09T06:20:55;3.30;;;1.10;;
15635;SDS011;7917;50.818;6.972;2022-09-09T06:23:23;2.42;;;1.27;;
15635;SDS011;7917;50.818;6.972;2022-09-09T06:26:00;2.72;;;1.13;;
15635;SDS011;7917;50.818;6.972;2022-09-09T06:28:30;4.90;;;1.83;;
15635;SDS011;7917;50.818;6.972;2022-09-09T06:30:58;6.85;;;1.90;;
15635;SDS011;7917;50.818;6.972;2022-09-09T06:33:26;3.10;;;1.48;;
15635;SDS011;7917;50.818;6.972;2022-09-09T06:35:58;3.92;;;1.63;;
15635;SDS011;7917;50.818;6.972;2022-09-09T06:38:28;5.53;;;1.77;;
15635;SDS011;7917;50.818;6.972;2022-09-09T06:40:57;2.53;;;1.55;;
15635;SDS011;7917;50.818;6.972;2022-09-09T06:43:28;5.05;;;1.23;;
15635;SDS011;7917;50.818;6.972;2022-09-09T06:45:56;5.15;;;1.10;;
15635;SDS011;7917;50.818;6.972;2022-09-09T06:48:25;4.95;;;1.65;;
15635;SDS011;7917;50.818;6.972;2022-09-09T06:51:00;7.50;;;1.60;;
15635;SDS011;7917;50.818;6.972;2022-09-09T06:53:28;5.18;;;1.33;;
15635;SDS011;7917;50.818;6.972;2022-09-09T06:56:13;4.45;;;1.83;;
15635;SDS011;7917;50.818;6.972;2022-09-09T06:58:47;3.53;;;1.20;;
15635;SDS011;7917;50.818;6.972;2022-09-09T07:01:16;7.25;;;1.50;;
15635;SDS011;7917;50.818;6.972;2022-09-09T07:03:45;6.05;;;1.33;;
15635;SDS011;7917;50.818;6.972;2022-09-09T07:06:15;2.83;;;1.15;;
15635;SDS011;7917;50.818;6.972;2022-09-09T07:08:48;5.13;;;1.17;;
15635;SDS011;7917;50.818;6.972;2022-09-09T07:11:16;5.40;;;1.48;;
15635;SDS011;7917;50.818;6.972;2022-09-09T07:13:44;5.57;;;1.65;;
15635;SDS011;7917;50.818;6.972;2022-09-09T07:16:15;5.65;;;1.48;;
15635;SDS011;7917;50.818;6.972;2022-09-09T07:18:44;4.03;;;1.20;;
15635;SDS011;7917;50.818;6.972;2022-09-09T07:21:13;3.33;;;1.30;;
15635;SDS011;7917;50.818;6.972;2022-09-09T07:23:41;6.00;;;1.45;;
15635;SDS011;7917;50.818;6.972;2022-09-09T07:26:10;4.47;;;1.38;;
15635;SDS011;7917;50.818;6.972;2022-09-09T07:28:39;5.20;;;1.77;;
15635;SDS011;7917;50.818;6.972;2022-09-09T07:31:10;5.65;;;1.38;;
15635;SDS011;7917;50.818;6.972;2022-09-09T07:33:42;5.75;;;1.27;;
15635;SDS011;7917;50.818;6.972;2022-09-09T07:36:13;7.90;;;1.17;;
15635;SDS011;7917;50.818;6.972;2022-09-09T07:38:43;4.47;;;1.00;;
15635;SDS011;7917;50.818;6.972;2022-09-09T07:41:14;11.63;;;1.73;;
15635;SDS011;7917;50.818;6.972;2022-09-09T07:43:44;4.68;;;1.25;;
15635;SDS011;7917;50.818;6.972;2022-09-09T07:46:14;4.45;;;1.10;;
15635;SDS011;7917;50.818;6.972;2022-09-09T07:48:47;5.78;;;1.50;;
15635;SDS011;7917;50.818;6.972;2022-09-09T07:51:18;3.33;;;1.02;;
15635;SDS011;7917;50.818;6.972;2022-09-09T07:53:47;7.70;;;1.30;;
15635;SDS011;7917;50.818;6.972;2022-09-09T07:56:19;6.32;;;1.85;;
15635;SDS011;7917;50.818;6.972;2022-09-09T07:58:51;7.65;;;1.45;;
15635;SDS011;7917;50.818;6.972;2022-09-09T08:01:22;4.57;;;1.30;;
15635;SDS011;7917;50.818;6.972;2022-09-09T08:03:56;4.47;;;1.52;;
15635;SDS011;7917;50.818;6.972;2022-09-09T08:06:28;4.55;;;1.25;;
15635;SDS011;7917;50.818;6.972;2022-09-09T08:08:58;2.88;;;1.02;;
15635;SDS011;7917;50.818;6.972;2022-09-09T08:11:27;8.00;;;2.53;;
15635;SDS011;7917;50.818;6.972;2022-09-09T08:13:55;3.58;;;1.42;;
15635;SDS011;7917;50.818;6.972;2022-09-09T08:16:25;6.68;;;1.60;;
15635;SDS011;7917;50.818;6.972;2022-09-09T08:18:56;6.05;;;1.50;;
15635;SDS011;7917;50.818;6.972;2022-09-09T08:21:25;4.20;;;1.35;;
15635;SDS011;7917;50.818;6.972;2022-09-09T08:23:55;4.60;;;1.00;;
15635;SDS011;7917;50.818;6.972;2022-09-09T08:26:24;4.93;;;1.42;;
15635;SDS011;7917;50.818;6.972;2022-09-09T08:28:53;4.63;;;1.10;;
15635;SDS011;7917;50.818;6.972;2022-09-09T08:31:23;5.20;;;1.50;;
15635;SDS011;7917;50.818;6.972;2022-09-09T08:33:54;6.03;;;1.13;;
15635;SDS011;7917;50.818;6.972;2022-09-09T08:36:24;5.10;;;1.40;;
15635;SDS011;7917;50.818;6.972;2022-09-09T08:38:54;5.05;;;1.60;;
15635;SDS011;7917;50.818;6.972;2022-09-09T08:44:28;3.10;;;1.02;;
15635;SDS011;7917;50.818;6.972;2022-09-09T08:47:07;2.78;;;0.90;;
15635;SDS011;7917;50.818;6.972;2022-09-09T08:49:57;5.15;;;0.90;;
15635;SDS011;7917;50.818;6.972;2022-09-09T08:52:36;3.28;;;0.90;;
15635;SDS011;7917;50.818;6.972;2022-09-09T08:55:11;5.90;;;1.20;;
15635;SDS011;7917;50.818;6.972;2022-09-09T08:57:48;2.60;;;0.70;;
15635;SDS011;7917;50.818;6.972;2022-09-09T09:00:18;3.40;;;1.05;;
15635;SDS011;7917;50.818;6.972;2022-09-09T09:02:48;5.88;;;1.92;;
15635;SDS011;7917;50.818;6.972;2022-09-09T09:05:27;4.18;;;1.00;;
15635;SDS011;7917;50.818;6.972;2022-09-09T09:08:01;2.65;;;1.02;;
15635;SDS011;7917;50.818;6.972;2022-09-09T09:10:41;4.57;;;1.15;;
15635;SDS011;7917;50.818;6.972;2022-09-09T09:13:14;5.10;;;1.15;;
15635;SDS011;7917;50.818;6.972;2022-09-09T09:15:44;1.95;;;0.80;;
15635;SDS011;7917;50.818;6.972;2022-09-09T09:18:19;3.65;;;1.13;;
15635;SDS011;7917;50.818;6.972;2022-09-09T09:20:51;2.63;;;0.90;;
15635;SDS011;7917;50.818;6.972;2022-09-09T09:23:28;3.15;;;0.88;;
15635;SDS011;7917;50.818;6.972;2022-09-09T09:26:05;2.03;;;0.80;;
15635;SDS011;7917;50.818;6.972;2022-09-09T09:28:37;4.53;;;1.17;;
15635;SDS011;7917;50.818;6.972;2022-09-09T09:31:06;5.65;;;1.15;;
15635;SDS011;7917;50.818;6.972;2022-09-09T09:33:38;2.85;;;1.10;;
15635;SDS011;7917;50.818;6.972;2022-09-09T09:36:13;3.00;;;0.85;;
15635;SDS011;7917;50.818;6.972;2022-09-09T09:38:51;5.82;;;0.82;;
15635;SDS011;7917;50.818;6.972;2022-09-09T09:41:33;2.03;;;0.80;;
15635;SDS011;7917;50.818;6.972;2022-09-09T09:44:18;3.80;;;1.10;;
15635;SDS011;7917;50.818;6.972;2022-09-09T09:46:50;3.53;;;0.95;;
15635;SDS011;7917;50.818;6.972;2022-09-09T09:49:20;2.22;;;0.70;;
15635;SDS011;7917;50.818;6.972;2022-09-09T09:51:48;3.75;;;1.20;;
15635;SDS011;7917;50.818;6.972;2022-09-09T09:54:18;1.90;;;0.88;;
15635;SDS011;7917;50.818;6.972;2022-09-09T09:56:57;1.67;;;0.70;;
15635;SDS011;7917;50.818;6.972;2022-09-09T09:59:36;3.38;;;1.02;;
15635;SDS011;7917;50.818;6.972;2022-09-09T10:05:02;3.03;;;0.70;;
15635;SDS011;7917;50.818;6.972;2022-09-09T10:07:31;2.40;;;0.75;;
15635;SDS011;7917;50.818;6.972;2022-09-09T10:09:59;2.22;;;0.85;;
15635;SDS011;7917;50.818;6.972;2022-09-09T10:12:39;2.75;;;0.85;;
15635;SDS011;7917;50.818;6.972;2022-09-09T10:15:17;4.95;;;1.42;;
15635;SDS011;7917;50.818;6.972;2022-09-09T10:18:12;3.67;;;0.85;;
15635;SDS011;7917;50.818;6.972;2022-09-09T10:20:53;3.38;;;0.82;;
15635;SDS011;7917;50.818;6.972;2022-09-09T10:23:35;3.10;;;0.93;;
15635;SDS011;7917;50.818;6.972;2022-09-09T10:26:23;3.25;;;1.80;;
15635;SDS011;7917;50.818;6.972;2022-09-09T10:31:55;4.00;;;0.90;;
15635;SDS011;7917;50.818;6.972;2022-09-09T10:34:43;3.00;;;0.90;;
15635;SDS011;7917;50.818;6.972;2022-09-09T10:37:26;4.65;;;0.95;;
15635;SDS011;7917;50.818;6.972;2022-09-09T10:40:06;3.10;;;0.70;;
15635;SDS011;7917;50.818;6.972;2022-09-09T10:42:47;1.48;;;0.70;;
15635;SDS011;7917;50.818;6.972;2022-09-09T10:45:16;2.55;;;0.80;;
15635;SDS011;7917;50.818;6.972;2022-09-09T10:47:53;2.50;;;0.98;;
15635;SDS011;7917;50.818;6.972;2022-09-09T10:50:45;2.13;;;0.80;;
15635;SDS011;7917;50.818;6.972;2022-09-09T10:53:24;3.05;;;1.38;;
15635;SDS011;7917;50.818;6.972;2022-09-09T10:56:03;4.78;;;0.90;;
15635;SDS011;7917;50.818;6.972;2022-09-09T10:58:36;3.25;;;0.60;;
15635;SDS011;7917;50.818;6.972;2022-09-09T11:01:10;3.42;;;0.90;;
15635;SDS011;7917;50.818;6.972;2022-09-09T11:03:43;1.98;;;1.05;;
15635;SDS011;7917;50.818;6.972;2022-09-09T11:06:19;2.75;;;0.90;;
15635;SDS011;7917;50.818;6.972;2022-09-09T11:08:52;4.90;;;1.02;;
15635;SDS011;7917;50.818;6.972;2022-09-09T11:11:21;3.60;;;1.00;;
15635;SDS011;7917;50.818;6.972;2022-09-09T11:13:55;4.13;;;1.10;;
15635;SDS011;7917;50.818;6.972;2022-09-09T11:16:28;3.42;;;0.82;;
15635;SDS011;7917;50.818;6.972;2022-09-09T11:19:02;3.83;;;0.95;;
15635;SDS011;7917;50.818;6.972;2022-09-09T11:21:33;1.75;;;0.70;;
15635;SDS011;7917;50.818;6.972;2022-09-09T11:24:09;3.47;;;0.90;;
15635;SDS011;7917;50.818;6.972;2022-09-09T11:26:42;4.28;;;0.77;;
15635;SDS011;7917;50.818;6.972;2022-09-09T11:32:40;4.22;;;0.80;;
15635;SDS011;7917;50.818;6.972;2022-09-09T11:35:33;3.17;;;0.60;;
15635;SDS011;7917;50.818;6.972;2022-09-09T11:38:14;1.48;;;0.95;;
15635;SDS011;7917;50.818;6.972;2022-09-09T11:40:48;7.63;;;1.00;;
15635;SDS011;7917;50.818;6.972;2022-09-09T11:43:27;1.48;;;0.70;;
15635;SDS011;7917;50.818;6.972;2022-09-09T11:45:58;3.03;;;1.00;;
15635;SDS011;7917;50.818;6.972;2022-09-09T11:48:31;3.47;;;0.77;;
15635;SDS011;7917;50.818;6.972;2022-09-09T11:51:03;1.83;;;0.63;;
15635;SDS011;7917;50.818;6.972;2022-09-09T11:53:34;4.43;;;1.17;;
15635;SDS011;7917;50.818;6.972;2022-09-09T11:56:05;2.10;;;0.90;;
15635;SDS011;7917;50.818;6.972;2022-09-09T11:58:39;2.25;;;0.70;;
15635;SDS011;7917;50.818;6.972;2022-09-09T12:01:14;4.95;;;0.93;;
15635;SDS011;7917;50.818;6.972;2022-09-09T12:04:06;2.10;;;0.73;;
15635;SDS011;7917;50.818;6.972;2022-09-09T12:06:44;1.80;;;0.70;;
15635;SDS011;7917;50.818;6.972;2022-09-09T12:09:17;6.65;;;0.90;;
15635;SDS011;7917;50.818;6.972;2022-09-09T12:11:52;2.72;;;1.00;;
15635;SDS011;7917;50.818;6.972;2022-09-09T12:14:35;1.95;;;0.80;;
15635;SDS011;7917;50.818;6.972;2022-09-09T12:17:17;1.92;;;0.70;;
15635;SDS011;7917;50.818;6.972;2022-09-09T12:19:47;2.20;;;0.70;;
15635;SDS011;7917;50.818;6.972;2022-09-09T12:22:31;2.30;;;0.80;;
15635;SDS011;7917;50.818;6.972;2022-09-09T12:25:09;3.85;;;0.70;;
15635;SDS011;7917;50.818;6.972;2022-09-09T12:27:53;3.83;;;0.80;;
15635;SDS011;7917;50.818;6.972;2022-09-09T12:30:32;2.72;;;0.70;;
15635;SDS011;7917;50.818;6.972;2022-09-09T12:33:08;1.77;;;0.70;;
15635;SDS011;7917;50.818;6.972;2022-09-09T12:35:40;2.70;;;0.60;;
15635;SDS011;7917;50.818;6.972;2022-09-09T12:38:12;1.00;;;0.70;;
15635;SDS011;7917;50.818;6.972;2022-09-09T12:40:53;1.13;;;0.68;;
15635;SDS011;7917;50.818;6.972;2022-09-09T12:43:24;1.65;;;0.80;;
15635;SDS011;7917;50.818;6.972;2022-09-09T12:45:53;1.45;;;0.77;;
15635;SDS011;7917;50.818;6.972;2022-09-09T12:48:26;2.58;;;0.70;;
15635;SDS011;7917;50.818;6.972;2022-09-09T12:50:59;2.53;;;0.70;;
15635;SDS011;7917;50.818;6.972;2022-09-09T12:53:29;2.40;;;0.90;;
15635;SDS011;7917;50.818;6.972;2022-09-09T12:56:00;3.72;;;0.73;;
15635;SDS011;7917;50.818;6.972;2022-09-09T12:58:31;1.40;;;0.55;;
15635;SDS011;7917;50.818;6.972;2022-09-09T13:01:00;4.05;;;0.98;;
15635;SDS011;7917;50.818;6.972;2022-09-09T13:03:30;1.65;;;0.73;;
15635;SDS011;7917;50.818;6.972;2022-09-09T13:05:59;3.40;;;0.70;;
15635;SDS011;7917;50.818;6.972;2022-09-09T13:08:39;1.50;;;0.75;;
15635;SDS011;7917;50.818;6.972;2022-09-09T13:11:07;2.20;;;0.60;;
15635;SDS011;7917;50.818;6.972;2022-09-09T13:13:41;1.52;;;0.68;;
15635;SDS011;7917;50.818;6.972;2022-09-09T13:16:18;3.20;;;0.80;;
15635;SDS011;7917;50.818;6.972;2022-09-09T13:18:50;1.60;;;0.60;;
15635;SDS011;7917;50.818;6.972;2022-09-09T13:21:18;1.98;;;0.55;;
15635;SDS011;7917;50.818;6.972;2022-09-09T13:23:48;1.10;;;0.60;;
15635;SDS011;7917;50.818;6.972;2022-09-09T13:26:21;1.33;;;0.60;;
15635;SDS011;7917;50.818;6.972;2022-09-09T13:28:52;2.05;;;0.57;;
15635;SDS011;7917;50.818;6.972;2022-09-09T13:31:22;1.05;;;0.47;;
15635;SDS011;7917;50.818;6.972;2022-09-09T13:33:52;2.15;;;0.40;;
15635;SDS011;7917;50.818;6.972;2022-09-09T13:36:27;1.80;;;0.50;;
15635;SDS011;7917;50.818;6.972;2022-09-09T13:38:58;2.33;;;0.70;;
15635;SDS011;7917;50.818;6.972;2022-09-09T13:41:29;1.60;;;0.70;;
15635;SDS011;7917;50.818;6.972;2022-09-09T13:44:00;2.80;;;0.60;;
15635;SDS011;7917;50.818;6.972;2022-09-09T13:46:31;0.73;;;0.40;;
15635;SDS011;7917;50.818;6.972;2022-09-09T13:49:02;1.67;;;0.55;;
15635;SDS011;7917;50.818;6.972;2022-09-09T13:51:46;2.13;;;0.65;;
15635;SDS011;7917;50.818;6.972;2022-09-09T13:54:17;2.70;;;0.80;;
15635;SDS011;7917;50.818;6.972;2022-09-09T13:56:45;2.70;;;0.70;;
15635;SDS011;7917;50.818;6.972;2022-09-09T13:59:16;2.70;;;0.68;;
15635;SDS011;7917;50.818;6.972;2022-09-09T14:01:47;2.60;;;0.45;;
15635;SDS011;7917;50.818;6.972;2022-09-09T14:04:17;1.05;;;0.65;;
15635;SDS011;7917;50.818;6.972;2022-09-09T14:06:46;1.63;;;0.70;;
15635;SDS011;7917;50.818;6.972;2022-09-09T14:09:16;1.33;;;0.70;;
15635;SDS011;7917;50.818;6.972;2022-09-09T14:11:44;1.23;;;0.52;;
15635;SDS011;7917;50.818;6.972;2022-09-09T14:14:12;2.17;;;0.50;;
15635;SDS011;7917;50.818;6.972;2022-09-09T14:16:41;2.20;;;0.70;;
15635;SDS011;7917;50.818;6.972;2022-09-09T14:19:10;2.65;;;0.50;;
15635;SDS011;7917;50.818;6.972;2022-09-09T14:21:38;0.77;;;0.50;;
15635;SDS011;7917;50.818;6.972;2022-09-09T14:24:06;1.10;;;0.40;;
15635;SDS011;7917;50.818;6.972;2022-09-09T14:26:33;1.38;;;0.40;;
15635;SDS011;7917;50.818;6.972;2022-09-09T14:29:02;0.65;;;0.40;;
15635;SDS011;7917;50.818;6.972;2022-09-09T14:31:30;1.85;;;0.40;;
15635;SDS011;7917;50.818;6.972;2022-09-09T14:33:59;0.68;;;0.40;;
15635;SDS011;7917;50.818;6.972;2022-09-09T14:36:26;2.20;;;0.30;;
15635;SDS011;7917;50.818;6.972;2022-09-09T14:38:55;1.23;;;0.50;;
15635;SDS011;7917;50.818;6.972;2022-09-09T14:41:23;1.05;;;0.30;;
15635;SDS011;7917;50.818;6.972;2022-09-09T14:43:51;2.40;;;0.85;;
15635;SDS011;7917;50.818;6.972;2022-09-09T14:46:19;2.15;;;0.50;;
15635;SDS011;7917;50.818;6.972;2022-09-09T14:48:47;1.27;;;0.60;;
15635;SDS011;7917;50.818;6.972;2022-09-09T14:51:18;1.95;;;0.57;;
15635;SDS011;7917;50.818;6.972;2022-09-09T14:53:47;1.85;;;0.70;;
15635;SDS011;7917;50.818;6.972;2022-09-09T14:56:19;1.88;;;0.85;;
15635;SDS011;7917;50.818;6.972;2022-09-09T14:58:49;1.95;;;0.80;;
15635;SDS011;7917;50.818;6.972;2022-09-09T15:01:17;3.38;;;0.68;;
15635;SDS011;7917;50.818;6.972;2022-09-09T15:03:49;1.88;;;0.50;;
15635;SDS011;7917;50.818;6.972;2022-09-09T15:06:19;1.30;;;0.57;;
15635;SDS011;7917;50.818;6.972;2022-09-09T15:08:49;2.00;;;0.77;;
15635;SDS011;7917;50.818;6.972;2022-09-09T15:11:20;2.60;;;0.80;;
15635;SDS011;7917;50.818;6.972;2022-09-09T15:13:51;3.10;;;0.82;;
15635;SDS011;7917;50.818;6.972;2022-09-09T15:16:23;2.08;;;0.90;;
15635;SDS011;7917;50.818;6.972;2022-09-09T15:18:53;4.25;;;1.10;;
15635;SDS011;7917;50.818;6.972;2022-09-09T15:21:25;2.75;;;1.08;;
15635;SDS011;7917;50.818;6.972;2022-09-09T15:23:54;2.53;;;0.80;;
15635;SDS011;7917;50.818;6.972;2022-09-09T15:26:23;3.03;;;1.00;;
15635;SDS011;7917;50.818;6.972;2022-09-09T15:28:51;6.18;;;1.10;;
15635;SDS011;7917;50.818;6.972;2022-09-09T15:31:24;1.63;;;0.90;;
15635;SDS011;7917;50.818;6.972;2022-09-09T15:33:57;1.48;;;0.75;;
15635;SDS011;7917;50.818;6.972;2022-09-09T15:36:29;3.45;;;0.73;;
15635;SDS011;7917;50.818;6.972;2022-09-09T15:38:58;0.82;;;0.57;;
15635;SDS011;7917;50.818;6.972;2022-09-09T15:41:27;0.68;;;0.50;;
15635;SDS011;7917;50.818;6.972;2022-09-09T15:43:57;1.70;;;0.50;;
15635;SDS011;7917;50.818;6.972;2022-09-09T15:46:26;2.60;;;0.57;;
15635;SDS011;7917;50.818;6.972;2022-09-09T15:49:02;2.50;;;1.55;;